createdAt,value
2022-07-25T00:00:02.793Z,15.44
2022-07-25T00:02:34.453Z,15.43
2022-07-25T00:05:04.144Z,15.43
2022-07-25T00:07:42.495Z,15.40
2022-07-25T00:10:11.542Z,15.38
2022-07-25T00:12:49.386Z,15.35
2022-07-25T00:15:18.052Z,15.35
2022-07-25T00:17:47.878Z,15.34
2022-07-25T00:20:16.036Z,15.33
2022-07-25T00:22:44.295Z,15.33
2022-07-25T00:25:12.369Z,15.33
2022-07-25T00:27:40.465Z,15.34
2022-07-25T00:30:09.456Z,15.28
2022-07-25T00:32:37.727Z,15.26
2022-07-25T00:35:08.958Z,15.25
2022-07-25T00:37:37.283Z,15.23
2022-07-25T00:40:05.633Z,15.21
2022-07-25T00:42:34.952Z,15.17
2022-07-25T00:45:03.658Z,15.16
2022-07-25T00:47:33.004Z,15.17
2022-07-25T00:50:01.344Z,15.14
2022-07-25T00:52:31.281Z,15.16
2022-07-25T00:54:59.495Z,15.16
2022-07-25T00:57:27.958Z,15.12
2022-07-25T00:59:56.118Z,15.01
2022-07-25T01:02:24.225Z,14.98
2022-07-25T01:04:53.188Z,14.94
2022-07-25T01:07:21.328Z,14.87
2022-07-25T01:09:51.285Z,14.83
2022-07-25T01:12:19.438Z,14.86
2022-07-25T01:14:47.552Z,14.89
2022-07-25T01:17:31.613Z,14.89
2022-07-25T01:19:59.821Z,14.92
2022-07-25T01:22:29.450Z,14.92
2022-07-25T01:24:57.793Z,14.97
2022-07-25T01:27:25.996Z,14.95
2022-07-25T01:29:54.168Z,14.98
2022-07-25T01:32:22.428Z,14.94
2022-07-25T01:34:50.740Z,14.95
2022-07-25T01:37:18.907Z,14.93
2022-07-25T01:39:48.431Z,14.87
2022-07-25T01:42:16.480Z,14.91
2022-07-25T01:44:44.690Z,14.90
2022-07-25T01:47:13.011Z,14.91
2022-07-25T01:49:41.555Z,14.92
2022-07-25T01:52:09.741Z,14.91
2022-07-25T01:54:37.834Z,14.91
2022-07-25T01:57:07.900Z,14.96
2022-07-25T01:59:38.082Z,14.95
2022-07-25T02:02:06.396Z,14.95
2022-07-25T02:04:34.819Z,14.97
2022-07-25T02:07:03.117Z,14.92
2022-07-25T02:09:32.464Z,14.95
2022-07-25T02:12:02.027Z,14.92
2022-07-25T02:14:31.739Z,14.91
2022-07-25T02:16:59.975Z,14.87
2022-07-25T02:19:28.226Z,14.90
2022-07-25T02:21:56.401Z,14.91
2022-07-25T02:24:24.602Z,14.92
2022-07-25T02:26:52.864Z,14.96
2022-07-25T02:29:22.151Z,14.96
2022-07-25T02:31:53.385Z,14.96
2022-07-25T02:34:21.460Z,14.97
2022-07-25T02:36:49.738Z,14.97
2022-07-25T02:39:17.843Z,14.99
2022-07-25T02:41:46.091Z,14.94
2022-07-25T02:44:14.285Z,14.98
2022-07-25T02:46:42.352Z,15.00
2022-07-25T02:49:12.261Z,14.99
2022-07-25T02:51:40.537Z,15.03
2022-07-25T02:54:08.735Z,15.05
2022-07-25T02:56:36.999Z,15.03
2022-07-25T02:59:07.358Z,15.03
2022-07-25T03:01:35.589Z,15.04
2022-07-25T03:04:04.268Z,15.06
2022-07-25T03:06:34.350Z,15.06
2022-07-25T03:09:03.343Z,15.03
2022-07-25T03:11:31.465Z,15.06
2022-07-25T03:13:59.920Z,15.04
2022-07-25T03:16:28.455Z,15.02
2022-07-25T03:18:56.856Z,15.01
2022-07-25T03:21:24.972Z,15.03
2022-07-25T03:23:54.681Z,15.03
2022-07-25T03:26:22.952Z,15.04
2022-07-25T03:28:53.146Z,15.01
2022-07-25T03:31:21.541Z,15.04
2022-07-25T03:33:49.750Z,15.08
2022-07-25T03:36:17.950Z,15.06
2022-07-25T03:38:46.288Z,15.07
2022-07-25T03:41:15.827Z,15.11
2022-07-25T03:43:45.209Z,15.10
2022-07-25T03:46:13.375Z,15.10
2022-07-25T03:48:41.479Z,15.08
2022-07-25T03:51:09.838Z,15.10
2022-07-25T03:53:58.048Z,15.13
2022-07-25T03:56:27.861Z,15.16
2022-07-25T03:58:56.119Z,15.15
2022-07-25T04:01:24.360Z,15.15
2022-07-25T04:03:55.062Z,15.18
2022-07-25T04:06:23.607Z,15.18
2022-07-25T04:08:51.974Z,15.21
2022-07-25T04:11:20.310Z,15.19
2022-07-25T04:13:50.591Z,15.20
2022-07-25T04:16:22.751Z,15.24
2022-07-25T04:18:51.887Z,15.21
2022-07-25T04:21:20.087Z,15.24
2022-07-25T04:23:48.290Z,15.28
2022-07-25T04:26:16.604Z,15.28
2022-07-25T04:28:44.831Z,15.27
2022-07-25T04:31:14.738Z,15.27
2022-07-25T04:33:43.658Z,15.30
2022-07-25T04:36:11.794Z,15.31
2022-07-25T04:38:40.112Z,15.27
2022-07-25T04:41:08.335Z,15.30
2022-07-25T04:43:36.456Z,15.30
2022-07-25T04:46:04.841Z,15.33
2022-07-25T04:48:35.127Z,15.34
2022-07-25T04:51:03.459Z,15.32
2022-07-25T04:53:31.558Z,15.31
2022-07-25T04:55:59.843Z,15.31
2022-07-25T04:58:29.151Z,15.31
2022-07-25T05:00:57.272Z,15.29
2022-07-25T05:03:25.424Z,15.25
2022-07-25T05:05:55.121Z,15.24
2022-07-25T05:08:23.208Z,15.23
2022-07-25T05:10:51.584Z,15.18
2022-07-25T05:13:22.143Z,15.13
2022-07-25T05:15:50.384Z,15.15
2022-07-25T05:18:18.549Z,15.17
2022-07-25T05:20:46.894Z,15.17
2022-07-25T05:23:16.514Z,15.13
2022-07-25T05:25:44.814Z,15.15
2022-07-25T05:28:14.943Z,15.04
2022-07-25T05:30:43.136Z,15.14
2022-07-25T05:33:11.278Z,15.09
2022-07-25T05:35:39.676Z,15.11
2022-07-25T05:38:07.725Z,14.97
2022-07-25T05:40:37.278Z,14.98
2022-07-25T05:43:05.623Z,14.99
2022-07-25T05:45:35.179Z,14.89
2022-07-25T05:48:03.522Z,15.00
2022-07-25T05:50:31.891Z,15.01
2022-07-25T05:53:00.020Z,15.03
2022-07-25T05:55:28.310Z,15.01
2022-07-25T05:57:58.003Z,15.00
2022-07-25T06:00:26.641Z,14.96
2022-07-25T06:02:58.931Z,14.94
2022-07-25T06:05:27.511Z,14.98
2022-07-25T06:07:56.130Z,14.93
2022-07-25T06:10:24.304Z,14.85
2022-07-25T06:12:52.439Z,14.91
2022-07-25T06:15:26.882Z,14.85
2022-07-25T06:17:55.987Z,14.87
2022-07-25T06:20:24.156Z,14.83
2022-07-25T06:22:52.357Z,14.89
2022-07-25T06:25:20.729Z,14.93
2022-07-25T06:27:48.920Z,14.96
2022-07-25T06:30:20.131Z,15.04
2022-07-25T06:32:50.967Z,14.98
2022-07-25T06:35:19.356Z,15.04
2022-07-25T06:37:47.874Z,15.06
2022-07-25T06:40:16.274Z,15.11
2022-07-25T06:42:45.433Z,15.10
2022-07-25T06:45:14.215Z,15.18
2022-07-25T06:47:43.510Z,15.24
2022-07-25T06:50:16.237Z,15.28
2022-07-25T06:52:44.902Z,15.37
2022-07-25T06:55:14.091Z,15.31
2022-07-25T06:57:43.382Z,15.33
2022-07-25T07:00:40.529Z,15.31
2022-07-25T07:03:08.777Z,15.26
2022-07-25T07:05:38.479Z,15.22
2022-07-25T07:08:07.021Z,15.26
2022-07-25T07:10:35.865Z,15.17
2022-07-25T07:13:05.594Z,15.14
2022-07-25T07:15:36.394Z,15.00
2022-07-25T07:18:06.259Z,15.11
2022-07-25T07:20:34.790Z,15.00
2022-07-25T07:23:04.564Z,15.07
2022-07-25T07:25:34.595Z,15.03
2022-07-25T07:28:02.849Z,14.95
2022-07-25T07:30:58.713Z,14.99
2022-07-25T07:33:19.779Z,15.02
2022-07-25T07:35:47.880Z,14.98
2022-07-25T07:38:18.222Z,15.07
2022-07-25T07:40:46.548Z,14.91
2022-07-25T07:43:14.788Z,14.96
2022-07-25T07:45:43.726Z,15.09
2022-07-25T07:48:12.023Z,15.11
2022-07-25T07:50:40.361Z,15.21
2022-07-25T07:53:08.518Z,15.34
2022-07-25T07:55:46.670Z,15.33
2022-07-25T07:58:16.870Z,15.46
2022-07-25T08:00:45.560Z,15.52
2022-07-25T08:03:13.937Z,15.46
2022-07-25T08:05:43.589Z,15.55
2022-07-25T08:08:12.657Z,15.55
2022-07-25T08:10:43.249Z,15.59
2022-07-25T08:13:15.660Z,15.73
2022-07-25T08:15:44.255Z,15.78
2022-07-25T08:18:18.000Z,16.02
2022-07-25T08:20:46.493Z,16.20
2022-07-25T08:23:14.831Z,16.30
2022-07-25T08:25:44.714Z,16.52
2022-07-25T08:28:13.123Z,16.64
2022-07-25T08:30:42.196Z,16.57
2022-07-25T08:33:11.146Z,16.65
2022-07-25T08:35:40.097Z,16.71
2022-07-25T08:38:08.485Z,16.98
2022-07-25T08:40:36.511Z,17.21
2022-07-25T08:43:06.435Z,17.09
2022-07-25T08:45:34.723Z,17.14
2022-07-25T08:48:02.922Z,16.97
2022-07-25T08:50:31.500Z,16.82
2022-07-25T08:53:34.824Z,16.91
2022-07-25T08:55:48.466Z,16.99
2022-07-25T08:58:18.878Z,16.87
2022-07-25T09:00:47.920Z,17.09
2022-07-25T09:03:16.239Z,17.15
2022-07-25T09:05:46.251Z,17.38
2022-07-25T09:08:16.601Z,17.26
2022-07-25T09:10:47.147Z,17.21
2022-07-25T09:13:15.860Z,17.20
2022-07-25T09:15:46.403Z,17.06
2022-07-25T09:18:16.856Z,17.23
2022-07-25T09:20:46.618Z,17.26
2022-07-25T09:23:15.967Z,17.32
2022-07-25T09:25:44.062Z,17.44
2022-07-25T09:28:14.853Z,17.36
2022-07-25T09:30:55.060Z,17.61
2022-07-25T09:33:25.148Z,17.95
2022-07-25T09:35:54.035Z,18.32
2022-07-25T09:38:23.825Z,18.49
2022-07-25T09:40:56.481Z,18.88
2022-07-25T09:43:25.574Z,18.96
2022-07-25T09:45:53.815Z,19.16
2022-07-25T09:48:22.331Z,19.37
2022-07-25T09:50:55.971Z,19.40
2022-07-25T09:53:24.584Z,19.75
2022-07-25T09:55:55.311Z,20.06
2022-07-25T09:58:24.571Z,20.57
2022-07-25T10:00:53.674Z,20.52
2022-07-25T10:03:27.410Z,20.65
2022-07-25T10:06:13.254Z,20.43
2022-07-25T10:08:41.974Z,20.09
2022-07-25T10:11:19.995Z,19.80
2022-07-25T10:13:49.498Z,19.81
2022-07-25T10:16:18.758Z,19.32
2022-07-25T10:18:51.073Z,19.33
2022-07-25T10:21:29.115Z,19.45
2022-07-25T10:24:02.561Z,19.87
2022-07-25T10:26:31.250Z,20.23
2022-07-25T10:28:59.861Z,20.73
2022-07-25T10:31:36.009Z,21.18
2022-07-25T10:34:06.531Z,21.26
2022-07-25T10:36:44.490Z,20.92
2022-07-25T10:39:13.422Z,20.65
2022-07-25T10:41:42.223Z,20.47
2022-07-25T10:44:13.263Z,20.63
2022-07-25T10:46:41.450Z,21.41
2022-07-25T10:49:10.157Z,22.03
2022-07-25T10:51:41.861Z,22.08
2022-07-25T10:54:15.998Z,22.05
2022-07-25T10:56:53.993Z,21.65
2022-07-25T10:59:32.834Z,21.73
2022-07-25T11:02:01.666Z,21.24
2022-07-25T11:04:30.197Z,20.84
2022-07-25T11:06:58.604Z,20.59
2022-07-25T11:09:28.868Z,20.77
2022-07-25T11:11:57.851Z,20.84
2022-07-25T11:14:27.189Z,21.06
2022-07-25T11:16:57.159Z,21.17
2022-07-25T11:19:26.973Z,21.33
2022-07-25T11:21:56.743Z,21.12
2022-07-25T11:24:37.431Z,21.09
2022-07-25T11:27:11.308Z,20.97
2022-07-25T11:29:41.346Z,21.01
2022-07-25T11:32:10.770Z,21.00
2022-07-25T11:34:41.947Z,20.89
2022-07-25T11:37:11.648Z,21.23
2022-07-25T11:39:42.153Z,21.28
2022-07-25T11:42:11.295Z,21.27
2022-07-25T11:44:44.280Z,21.37
2022-07-25T11:47:24.092Z,21.76
2022-07-25T11:49:52.750Z,22.27
2022-07-25T11:52:21.849Z,22.70
2022-07-25T11:55:08.631Z,22.95
2022-07-25T11:57:38.143Z,22.79
2022-07-25T12:00:09.816Z,22.30
2022-07-25T12:02:38.218Z,21.67
2022-07-25T12:05:07.574Z,21.00
2022-07-25T12:07:37.111Z,20.75
2022-07-25T12:10:07.603Z,20.14
2022-07-25T12:12:46.471Z,20.83
2022-07-25T12:15:15.360Z,21.00
2022-07-25T12:17:44.290Z,21.44
2022-07-25T12:20:14.903Z,21.77
2022-07-25T12:22:43.528Z,22.20
2022-07-25T12:25:13.663Z,22.25
2022-07-25T12:27:42.053Z,22.23
2022-07-25T12:30:11.310Z,22.53
2022-07-25T12:32:39.470Z,22.65
2022-07-25T12:35:08.446Z,22.27
2022-07-25T12:37:37.501Z,21.77
2022-07-25T12:40:06.536Z,21.41
2022-07-25T12:42:36.066Z,20.97
2022-07-25T12:45:04.587Z,20.48
2022-07-25T12:47:32.973Z,20.06
2022-07-25T12:50:01.219Z,19.75
2022-07-25T12:52:29.557Z,19.84
2022-07-25T12:54:57.623Z,19.87
2022-07-25T12:57:25.873Z,19.62
2022-07-25T12:59:56.020Z,19.83
2022-07-25T13:02:24.284Z,20.17
2022-07-25T13:04:52.579Z,20.32
2022-07-25T13:07:20.922Z,20.28
2022-07-25T13:09:49.076Z,20.53
2022-07-25T13:12:17.161Z,20.46
2022-07-25T13:14:45.277Z,20.63
2022-07-25T13:17:15.786Z,20.68
2022-07-25T13:19:43.958Z,20.83
2022-07-25T13:22:12.124Z,21.00
2022-07-25T13:24:40.339Z,21.22
2022-07-25T13:27:09.530Z,21.25
2022-07-25T13:29:37.839Z,21.11
2022-07-25T13:32:06.709Z,21.29
2022-07-25T13:34:36.475Z,21.22
2022-07-25T13:37:04.699Z,21.11
2022-07-25T13:39:33.776Z,21.24
2022-07-25T13:42:01.846Z,21.49
2022-07-25T13:44:29.939Z,21.58
2022-07-25T13:46:58.817Z,21.63
2022-07-25T13:49:27.280Z,21.92
2022-07-25T13:51:56.942Z,21.64
2022-07-25T13:54:25.359Z,21.57
2022-07-25T13:56:53.393Z,21.74
2022-07-25T13:59:22.777Z,21.62
2022-07-25T14:01:59.002Z,21.59
2022-07-25T14:04:32.741Z,21.77
2022-07-25T14:07:11.047Z,22.25
2022-07-25T14:09:44.837Z,22.35
2022-07-25T14:12:18.134Z,22.60
2022-07-25T14:14:50.683Z,22.36
2022-07-25T14:17:25.744Z,22.13
2022-07-25T14:20:03.079Z,22.02
2022-07-25T14:22:41.162Z,22.13
2022-07-25T14:25:16.103Z,22.61
2022-07-25T14:27:49.777Z,22.83
2022-07-25T14:30:23.960Z,23.05
2022-07-25T14:32:58.198Z,23.09
2022-07-25T14:35:34.302Z,23.03
2022-07-25T14:38:11.836Z,22.53
2022-07-25T14:40:46.182Z,22.10
2022-07-25T14:43:20.214Z,22.19
2022-07-25T14:45:48.431Z,22.01
2022-07-25T14:48:21.075Z,22.09
2022-07-25T14:50:54.394Z,22.18
2022-07-25T14:53:31.101Z,22.01
2022-07-25T14:56:04.348Z,22.19
2022-07-25T14:58:37.005Z,22.33
2022-07-25T15:01:11.093Z,22.27
2022-07-25T15:03:44.927Z,22.30
2022-07-25T15:06:21.811Z,22.41
2022-07-25T15:08:58.956Z,22.36
2022-07-25T15:11:30.247Z,22.27
2022-07-25T15:14:07.215Z,22.31
2022-07-25T15:16:42.320Z,21.88
2022-07-25T15:19:17.907Z,22.14
2022-07-25T15:21:47.734Z,21.90
2022-07-25T15:24:28.695Z,21.89
2022-07-25T15:27:03.289Z,21.91
2022-07-25T15:29:38.178Z,21.84
2022-07-25T15:32:12.971Z,21.87
2022-07-25T15:34:47.613Z,21.77
2022-07-25T15:37:23.413Z,21.79
2022-07-25T15:40:00.510Z,21.88
2022-07-25T15:45:32.954Z,21.29
2022-07-25T15:48:10.410Z,21.57
2022-07-25T15:50:44.699Z,21.38
2022-07-25T15:53:15.763Z,21.44
2022-07-25T15:55:45.426Z,21.31
2022-07-25T15:58:13.879Z,21.18
2022-07-25T16:00:42.883Z,21.19
2022-07-25T16:03:11.271Z,21.15
2022-07-25T16:05:39.815Z,21.08
2022-07-25T16:08:09.995Z,20.74
2022-07-25T16:10:39.877Z,20.77
2022-07-25T16:13:11.431Z,20.68
2022-07-25T16:15:44.554Z,20.64
2022-07-25T16:18:20.959Z,20.58
2022-07-25T16:20:53.624Z,20.65
2022-07-25T16:23:31.629Z,20.62
2022-07-25T16:26:11.550Z,20.50
2022-07-25T16:28:53.993Z,20.56
2022-07-25T16:31:31.601Z,20.47
2022-07-25T16:34:00.937Z,20.51
2022-07-25T16:36:33.473Z,20.48
2022-07-25T16:39:08.043Z,20.34
2022-07-25T16:41:41.530Z,20.34
2022-07-25T16:44:20.577Z,20.18
2022-07-25T16:46:54.429Z,20.25
2022-07-25T16:49:28.212Z,20.33
2022-07-25T16:52:04.424Z,20.26
2022-07-25T16:54:41.094Z,20.29
2022-07-25T16:57:12.728Z,20.35
2022-07-25T16:59:48.636Z,20.33
2022-07-25T17:02:26.131Z,20.38
2022-07-25T17:05:01.675Z,20.30
2022-07-25T17:07:34.727Z,20.28
2022-07-25T17:10:06.146Z,20.18
2022-07-25T17:12:39.744Z,20.18
2022-07-25T17:15:18.329Z,19.95
2022-07-25T17:17:52.487Z,19.98
2022-07-25T17:20:26.300Z,20.05
2022-07-25T17:22:58.952Z,20.05
2022-07-25T17:25:31.683Z,19.92
2022-07-25T17:28:04.647Z,19.68
2022-07-25T17:30:40.271Z,19.74
2022-07-25T17:33:15.425Z,19.56
2022-07-25T17:35:50.637Z,19.32
2022-07-25T17:38:25.644Z,19.16
2022-07-25T17:40:54.135Z,19.20
2022-07-25T17:43:22.330Z,19.13
2022-07-25T17:45:51.906Z,19.08
2022-07-25T17:48:22.125Z,19.14
2022-07-25T17:50:55.917Z,18.94
2022-07-25T17:53:30.328Z,18.94
2022-07-25T17:56:05.998Z,18.93
2022-07-25T17:58:41.333Z,18.98
2022-07-25T18:01:18.730Z,18.93
2022-07-25T18:03:52.884Z,18.90
2022-07-25T18:06:29.917Z,18.98
2022-07-25T18:09:05.515Z,18.99
2022-07-25T18:11:42.543Z,18.90
2022-07-25T18:14:13.334Z,19.01
2022-07-25T18:16:43.798Z,18.90
2022-07-25T18:19:12.151Z,18.91
2022-07-25T18:21:40.447Z,18.83
2022-07-25T18:24:09.713Z,18.75
2022-07-25T18:26:38.250Z,18.64
2022-07-25T18:29:06.847Z,18.61
2022-07-25T18:31:35.056Z,18.51
2022-07-25T18:34:05.556Z,18.42
2022-07-25T18:36:35.583Z,18.38
2022-07-25T18:39:04.082Z,18.32
2022-07-25T18:41:33.237Z,18.30
2022-07-25T18:44:01.505Z,18.31
2022-07-25T18:46:32.945Z,18.23
2022-07-25T18:49:02.492Z,18.21
2022-07-25T18:51:32.481Z,18.22
2022-07-25T18:54:00.626Z,18.10
2022-07-25T18:56:28.842Z,17.95
2022-07-25T18:59:00.975Z,17.78
2022-07-25T19:01:35.328Z,17.74
2022-07-25T19:04:11.476Z,17.71
2022-07-25T19:06:45.490Z,17.70
2022-07-25T19:09:19.418Z,17.67
2022-07-25T19:11:53.376Z,17.67
2022-07-25T19:14:28.330Z,17.54
2022-07-25T19:17:00.570Z,17.43
2022-07-25T19:19:34.390Z,17.26
2022-07-25T19:22:10.073Z,17.21
2022-07-25T19:24:45.961Z,17.14
2022-07-25T19:27:20.688Z,17.11
2022-07-25T19:29:52.056Z,17.10
2022-07-25T19:32:25.002Z,17.15
2022-07-25T19:35:01.517Z,17.13
2022-07-25T19:37:40.550Z,17.06
2022-07-25T19:40:16.513Z,16.96
2022-07-25T19:42:44.777Z,17.00
2022-07-25T19:45:16.115Z,16.93
2022-07-25T19:47:48.662Z,16.89
2022-07-25T19:50:23.011Z,16.76
2022-07-25T19:52:59.199Z,16.76
2022-07-25T19:55:35.312Z,16.70
2022-07-25T19:58:10.273Z,16.57
2022-07-25T20:00:46.038Z,16.54
2022-07-25T20:03:23.362Z,16.52
2022-07-25T20:05:57.199Z,16.46
2022-07-25T20:08:30.110Z,16.48
2022-07-25T20:11:03.748Z,16.47
2022-07-25T20:13:37.167Z,16.37
2022-07-25T20:16:11.005Z,16.30
2022-07-25T20:18:42.273Z,16.19
2022-07-25T20:21:16.048Z,16.10
2022-07-25T20:23:50.997Z,16.09
2022-07-25T20:26:21.615Z,16.06
2022-07-25T20:28:55.616Z,16.00
2022-07-25T20:31:29.538Z,15.95
2022-07-25T20:34:02.835Z,15.82
2022-07-25T20:36:35.994Z,15.85
2022-07-25T20:39:08.815Z,15.78
2022-07-25T20:41:41.717Z,15.79
2022-07-25T20:44:16.694Z,15.77
2022-07-25T20:46:46.131Z,15.73
2022-07-25T20:49:17.444Z,15.63
2022-07-25T20:51:45.692Z,15.51
2022-07-25T20:54:21.941Z,15.43
2022-07-25T20:56:56.094Z,15.50
2022-07-25T20:59:30.172Z,15.34
2022-07-25T21:02:04.831Z,15.33
2022-07-25T21:04:39.684Z,15.30
2022-07-25T21:07:12.244Z,15.31
2022-07-25T21:09:44.711Z,15.32
2022-07-25T21:12:19.160Z,15.25
2022-07-25T21:14:56.049Z,15.23
2022-07-25T21:17:31.161Z,15.21
2022-07-25T21:20:05.190Z,15.13
2022-07-25T21:22:39.438Z,15.10
2022-07-25T21:25:15.375Z,15.08
2022-07-25T21:27:48.905Z,15.05
2022-07-25T21:30:18.356Z,15.01
2022-07-25T21:32:50.841Z,15.01
2022-07-25T21:35:22.562Z,14.92
2022-07-25T21:37:56.163Z,14.86
2022-07-25T21:40:32.052Z,14.87
2022-07-25T21:43:04.050Z,14.82
2022-07-25T21:45:42.300Z,14.81
2022-07-25T21:48:15.366Z,14.77
2022-07-25T21:50:47.550Z,14.77
2022-07-25T21:53:22.343Z,14.69
2022-07-25T21:55:56.511Z,14.67
2022-07-25T21:58:30.127Z,14.61
2022-07-25T22:01:03.803Z,14.59
2022-07-25T22:03:39.471Z,14.49
2022-07-25T22:06:13.809Z,14.50
2022-07-25T22:08:47.625Z,14.47
2022-07-25T22:11:43.563Z,14.45
2022-07-25T22:14:17.469Z,14.40
2022-07-25T22:16:49.397Z,14.40
2022-07-25T22:19:22.310Z,14.40
2022-07-25T22:21:57.762Z,14.39
2022-07-25T22:24:31.250Z,14.33
2022-07-25T22:27:06.406Z,14.34
2022-07-25T22:29:37.013Z,14.29
2022-07-25T22:32:12.005Z,14.31
2022-07-25T22:34:46.471Z,14.26
2022-07-25T22:37:20.402Z,14.25
2022-07-25T22:39:57.708Z,14.24
2022-07-25T22:42:38.393Z,14.19
2022-07-25T22:45:14.167Z,14.16
2022-07-25T22:47:48.431Z,14.12
2022-07-25T22:50:23.006Z,14.05
2022-07-25T22:52:57.261Z,14.05
2022-07-25T22:55:27.028Z,14.00
2022-07-25T22:57:56.707Z,13.98
2022-07-25T23:00:24.868Z,14.00
2022-07-25T23:02:53.120Z,13.97
2022-07-25T23:05:21.248Z,13.96
2022-07-25T23:07:49.406Z,13.92
2022-07-25T23:10:17.617Z,13.84
2022-07-25T23:12:46.888Z,13.81
2022-07-25T23:15:16.465Z,13.84
2022-07-25T23:17:44.990Z,13.76
2022-07-25T23:20:13.325Z,13.70
2022-07-25T23:22:41.537Z,13.72
2022-07-25T23:25:11.168Z,13.69
2022-07-25T23:27:39.530Z,13.70
2022-07-25T23:30:08.230Z,13.70
2022-07-25T23:32:37.775Z,13.68
2022-07-25T23:35:06.266Z,13.63
2022-07-25T23:37:34.354Z,13.61
2022-07-25T23:40:02.739Z,13.62
2022-07-25T23:42:30.854Z,13.60
2022-07-25T23:44:59.747Z,13.63
2022-07-25T23:47:39.560Z,13.61
2022-07-25T23:50:11.728Z,13.58
2022-07-25T23:52:40.233Z,13.60
2022-07-25T23:55:09.540Z,13.60
2022-07-25T23:57:37.689Z,13.60
